createdAt,value
2019-06-20T00:00:46.902Z,18.90
2019-06-20T00:03:17.224Z,18.90
2019-06-20T00:05:46.690Z,18.90
2019-06-20T00:08:16.196Z,18.90
2019-06-20T00:10:45.645Z,18.70
2019-06-20T00:13:15.080Z,18.70
2019-06-20T00:15:44.528Z,18.60
2019-06-20T00:18:13.969Z,18.60
2019-06-20T00:20:44.700Z,18.70
2019-06-20T00:23:14.166Z,18.70
2019-06-20T00:25:43.594Z,18.70
2019-06-20T00:28:13.037Z,18.70
2019-06-20T00:30:44.673Z,18.60
2019-06-20T00:33:14.093Z,18.70
2019-06-20T00:35:45.622Z,18.60
2019-06-20T00:38:15.978Z,18.50
2019-06-20T00:40:45.519Z,18.40
2019-06-20T00:43:17.770Z,18.50
2019-06-20T00:45:45.945Z,18.40
2019-06-20T00:48:16.371Z,18.30
2019-06-20T00:50:45.828Z,18.30
2019-06-20T00:53:15.202Z,18.20
2019-06-20T00:55:46.681Z,18.10
2019-06-20T00:58:18.029Z,18.00
2019-06-20T01:00:47.468Z,18.00
2019-06-20T01:03:17.856Z,17.90
2019-06-20T01:05:47.239Z,17.90
2019-06-20T01:08:16.681Z,17.90
2019-06-20T01:10:46.145Z,17.80
2019-06-20T01:13:32.600Z,17.70
2019-06-20T01:15:49.274Z,17.70
2019-06-20T01:18:18.736Z,17.70
2019-06-20T01:20:48.185Z,17.60
2019-06-20T01:23:18.618Z,17.70
2019-06-20T01:25:48.235Z,17.90
2019-06-20T01:28:17.834Z,17.80
2019-06-20T01:30:47.860Z,17.70
2019-06-20T01:33:17.354Z,17.70
2019-06-20T01:35:47.384Z,17.60
2019-06-20T01:38:16.860Z,17.60
2019-06-20T01:40:46.289Z,17.60
2019-06-20T01:43:15.745Z,17.70
2019-06-20T01:45:45.197Z,17.60
2019-06-20T01:48:14.807Z,17.60
2019-06-20T01:50:45.406Z,17.60
2019-06-20T01:53:16.028Z,17.50
2019-06-20T01:55:47.493Z,17.60
2019-06-20T01:58:16.930Z,17.50
2019-06-20T02:00:50.166Z,17.50
2019-06-20T02:03:21.036Z,17.60
2019-06-20T02:05:50.728Z,17.50
2019-06-20T02:08:20.533Z,17.50
2019-06-20T02:10:49.884Z,17.50
2019-06-20T02:13:19.345Z,17.50
2019-06-20T02:15:48.833Z,17.40
2019-06-20T02:18:19.073Z,17.30
2019-06-20T02:20:51.927Z,17.30
2019-06-20T02:23:22.621Z,17.20
2019-06-20T02:25:52.139Z,17.20
2019-06-20T02:28:22.912Z,17.20
2019-06-20T02:30:52.515Z,17.10
2019-06-20T02:33:23.847Z,17.00
2019-06-20T02:35:53.303Z,17.10
2019-06-20T02:38:22.705Z,17.00
2019-06-20T02:40:52.251Z,17.10
2019-06-20T02:43:23.128Z,17.10
2019-06-20T02:45:56.283Z,17.10
2019-06-20T02:48:26.621Z,16.90
2019-06-20T02:50:56.729Z,16.90
2019-06-20T02:53:27.643Z,17.00
2019-06-20T02:55:57.078Z,17.00
2019-06-20T02:58:26.540Z,17.00
2019-06-20T03:00:58.385Z,17.00
2019-06-20T03:03:29.296Z,16.90
2019-06-20T03:05:59.131Z,16.90
2019-06-20T03:08:29.570Z,17.00
2019-06-20T03:10:59.021Z,17.00
2019-06-20T03:13:28.529Z,16.90
2019-06-20T03:15:58.074Z,16.90
2019-06-20T03:18:29.248Z,16.80
2019-06-20T03:20:58.835Z,16.80
2019-06-20T03:23:30.285Z,16.80
2019-06-20T03:25:59.672Z,16.80
2019-06-20T03:28:29.141Z,16.80
2019-06-20T03:30:58.576Z,16.90
2019-06-20T03:33:28.035Z,16.90
2019-06-20T03:35:57.616Z,17.00
2019-06-20T03:38:27.069Z,17.00
2019-06-20T03:40:58.878Z,16.90
2019-06-20T03:43:28.379Z,16.90
2019-06-20T03:45:57.812Z,16.90
2019-06-20T03:48:27.280Z,16.80
2019-06-20T03:50:58.622Z,16.90
2019-06-20T03:53:29.043Z,16.90
2019-06-20T03:55:59.404Z,17.00
2019-06-20T03:58:29.144Z,17.10
2019-06-20T04:00:58.658Z,17.00
2019-06-20T04:03:29.292Z,16.90
2019-06-20T04:05:58.756Z,16.90
2019-06-20T04:08:28.150Z,16.90
2019-06-20T04:10:57.592Z,16.80
2019-06-20T04:13:27.049Z,16.80
2019-06-20T04:15:57.425Z,16.80
2019-06-20T04:18:27.940Z,16.60
2019-06-20T04:20:57.394Z,16.70
2019-06-20T04:23:26.816Z,16.70
2019-06-20T04:25:56.579Z,16.70
2019-06-20T04:28:27.622Z,16.80
2019-06-20T04:30:58.348Z,16.70
2019-06-20T04:33:31.613Z,16.60
2019-06-20T04:36:01.211Z,16.80
2019-06-20T04:38:32.593Z,16.80
2019-06-20T04:41:02.091Z,16.80
2019-06-20T04:43:34.505Z,16.80
2019-06-20T04:46:08.701Z,16.80
2019-06-20T04:48:38.131Z,16.90
2019-06-20T04:51:08.635Z,17.00
2019-06-20T04:53:39.014Z,17.10
2019-06-20T04:56:11.011Z,17.20
2019-06-20T04:58:40.506Z,17.20
2019-06-20T05:01:14.421Z,17.10
2019-06-20T05:03:44.048Z,17.00
2019-06-20T05:06:14.471Z,17.10
2019-06-20T05:08:44.003Z,17.20
2019-06-20T05:11:13.458Z,17.00
2019-06-20T05:13:42.934Z,17.10
2019-06-20T05:16:13.389Z,17.10
2019-06-20T05:18:47.062Z,17.10
2019-06-20T05:21:21.609Z,17.10
2019-06-20T05:23:50.990Z,17.10
2019-06-20T05:26:25.870Z,17.00
2019-06-20T05:28:59.785Z,17.10
2019-06-20T05:31:31.191Z,17.10
2019-06-20T05:34:04.764Z,17.10
2019-06-20T05:36:37.500Z,17.10
2019-06-20T05:39:07.571Z,17.30
2019-06-20T05:41:37.192Z,17.30
2019-06-20T05:44:09.927Z,17.20
2019-06-20T05:46:40.864Z,17.40
2019-06-20T05:49:11.200Z,17.40
2019-06-20T05:51:40.641Z,17.40
2019-06-20T05:54:11.014Z,17.30
2019-06-20T05:56:41.459Z,17.20
2019-06-20T05:59:12.516Z,17.20
2019-06-20T06:01:44.337Z,17.40
2019-06-20T06:04:15.371Z,17.20
2019-06-20T06:06:44.809Z,17.00
2019-06-20T06:09:15.526Z,17.00
2019-06-20T06:11:45.000Z,17.10
2019-06-20T06:14:14.461Z,17.40
2019-06-20T06:16:45.748Z,17.50
2019-06-20T06:19:15.255Z,17.40
2019-06-20T06:21:45.675Z,17.30
2019-06-20T06:24:16.128Z,17.30
2019-06-20T06:26:45.575Z,17.20
2019-06-20T06:29:15.050Z,17.10
2019-06-20T06:31:46.584Z,17.20
2019-06-20T06:34:16.037Z,17.30
2019-06-20T06:36:46.548Z,17.30
2019-06-20T06:39:16.039Z,17.50
2019-06-20T06:41:45.505Z,17.40
2019-06-20T06:44:15.901Z,17.60
2019-06-20T06:46:52.990Z,17.60
2019-06-20T06:49:16.550Z,17.80
2019-06-20T06:51:46.102Z,18.00
2019-06-20T06:54:17.174Z,18.20
2019-06-20T06:56:46.679Z,18.00
2019-06-20T06:59:17.111Z,17.90
2019-06-20T07:01:46.582Z,18.00
2019-06-20T07:04:16.041Z,18.00
2019-06-20T07:06:46.783Z,18.00
2019-06-20T07:09:16.316Z,18.20
2019-06-20T07:11:45.793Z,18.20
2019-06-20T07:14:15.356Z,18.20
2019-06-20T07:16:59.438Z,18.00
2019-06-20T07:19:18.947Z,17.80
2019-06-20T07:21:50.194Z,17.90
2019-06-20T07:24:21.203Z,18.10
2019-06-20T07:26:50.632Z,18.40
2019-06-20T07:29:20.073Z,18.80
2019-06-20T07:31:49.855Z,18.80
2019-06-20T07:34:20.330Z,18.60
2019-06-20T07:36:49.806Z,18.60
2019-06-20T07:39:20.204Z,18.30
2019-06-20T07:41:49.709Z,18.30
2019-06-20T07:44:21.108Z,18.30
2019-06-20T07:46:50.566Z,18.60
2019-06-20T07:49:26.247Z,18.80
2019-06-20T07:51:51.957Z,18.70
2019-06-20T07:54:21.503Z,18.70
2019-06-20T07:56:51.911Z,18.60
2019-06-20T07:59:21.587Z,18.50
2019-06-20T08:01:51.107Z,18.40
2019-06-20T08:04:21.699Z,18.50
2019-06-20T08:06:52.776Z,18.60
2019-06-20T08:09:22.894Z,18.60
2019-06-20T08:11:55.017Z,18.70
2019-06-20T08:14:26.146Z,18.70
2019-06-20T08:16:55.890Z,18.70
2019-06-20T08:19:25.282Z,19.00
2019-06-20T08:21:56.791Z,19.10
2019-06-20T08:24:27.237Z,19.20
2019-06-20T08:26:58.742Z,18.90
2019-06-20T08:29:29.650Z,19.00
2019-06-20T08:32:00.742Z,19.20
2019-06-20T08:34:30.708Z,19.10
2019-06-20T08:37:00.640Z,19.00
2019-06-20T08:39:31.235Z,19.00
2019-06-20T08:42:04.335Z,19.20
2019-06-20T08:44:34.066Z,18.90
2019-06-20T08:47:03.886Z,18.90
2019-06-20T08:49:33.635Z,19.20
2019-06-20T08:52:03.520Z,19.30
2019-06-20T08:54:33.926Z,19.50
2019-06-20T08:57:04.161Z,19.70
2019-06-20T08:59:34.974Z,19.90
2019-06-20T09:04:35.557Z,19.80
2019-06-20T09:09:34.665Z,20.10
2019-06-20T09:12:05.128Z,20.40
2019-06-20T09:14:34.740Z,20.50
2019-06-20T09:17:04.359Z,20.70
2019-06-20T09:19:33.791Z,20.70
2019-06-20T09:22:05.036Z,20.70
2019-06-20T09:24:34.545Z,20.60
2019-06-20T09:27:04.288Z,20.50
2019-06-20T09:29:41.584Z,20.40
2019-06-20T09:32:05.018Z,20.90
2019-06-20T09:34:36.159Z,21.30
2019-06-20T09:37:05.615Z,21.70
2019-06-20T09:39:36.333Z,21.70
2019-06-20T09:42:05.828Z,21.70
2019-06-20T09:44:35.190Z,21.90
2019-06-20T09:47:04.989Z,21.90
2019-06-20T09:49:34.427Z,21.60
2019-06-20T09:52:05.801Z,22.10
2019-06-20T09:54:35.212Z,22.40
2019-06-20T09:57:05.748Z,21.80
2019-06-20T09:59:35.194Z,21.60
2019-06-20T10:02:04.768Z,21.70
2019-06-20T10:04:34.264Z,21.50
2019-06-20T10:07:03.778Z,21.50
2019-06-20T10:09:33.241Z,21.50
2019-06-20T10:12:02.661Z,21.40
2019-06-20T10:14:33.150Z,21.50
2019-06-20T10:17:06.258Z,21.90
2019-06-20T10:19:36.254Z,22.30
2019-06-20T10:22:05.800Z,22.40
2019-06-20T10:24:36.072Z,22.30
2019-06-20T10:27:06.263Z,22.40
2019-06-20T10:29:35.634Z,22.40
2019-06-20T10:32:05.135Z,22.60
2019-06-20T10:34:34.517Z,22.40
2019-06-20T10:37:04.042Z,22.20
2019-06-20T10:39:34.657Z,22.10
2019-06-20T10:42:04.142Z,21.80
2019-06-20T10:44:33.590Z,22.00
2019-06-20T10:47:03.458Z,21.90
2019-06-20T10:49:32.934Z,21.30
2019-06-20T10:52:03.297Z,21.70
2019-06-20T10:54:32.734Z,21.50
2019-06-20T10:57:03.206Z,21.70
2019-06-20T10:59:32.665Z,21.80
2019-06-20T11:02:06.465Z,21.70
2019-06-20T11:04:41.111Z,21.50
2019-06-20T11:07:18.003Z,21.90
2019-06-20T11:09:50.124Z,22.40
2019-06-20T11:12:22.208Z,22.50
2019-06-20T11:14:51.609Z,22.50
2019-06-20T11:17:21.879Z,22.10
2019-06-20T11:19:51.369Z,21.80
2019-06-20T11:22:22.245Z,22.40
2019-06-20T11:24:53.586Z,22.50
2019-06-20T11:27:25.029Z,22.50
2019-06-20T11:29:56.243Z,23.00
2019-06-20T11:32:31.247Z,22.80
2019-06-20T11:35:01.913Z,23.00
2019-06-20T11:37:32.554Z,22.90
2019-06-20T11:40:15.715Z,22.90
2019-06-20T11:42:48.941Z,23.20
2019-06-20T11:45:20.082Z,23.70
2019-06-20T11:47:49.802Z,24.00
2019-06-20T11:50:21.051Z,23.70
2019-06-20T11:52:51.074Z,23.80
2019-06-20T11:55:24.276Z,23.80
2019-06-20T11:57:53.859Z,23.30
2019-06-20T12:00:24.681Z,23.30
2019-06-20T12:02:55.190Z,23.20
2019-06-20T12:05:28.987Z,23.80
2019-06-20T12:08:00.705Z,24.30
2019-06-20T12:10:30.485Z,24.10
2019-06-20T12:13:05.699Z,24.40
2019-06-20T12:15:35.129Z,23.70
2019-06-20T12:18:08.937Z,23.70
2019-06-20T12:20:41.038Z,23.80
2019-06-20T12:23:10.591Z,23.50
2019-06-20T12:25:42.707Z,23.90
2019-06-20T12:28:14.404Z,24.10
2019-06-20T12:30:57.705Z,24.70
2019-06-20T12:33:42.503Z,24.80
2019-06-20T12:36:20.652Z,25.60
2019-06-20T12:39:05.110Z,25.60
2019-06-20T12:41:47.526Z,24.50
2019-06-20T12:44:18.998Z,23.80
2019-06-20T12:46:53.478Z,23.20
2019-06-20T12:49:25.829Z,23.10
2019-06-20T12:51:58.762Z,23.30
2019-06-20T12:54:31.012Z,24.00
2019-06-20T12:57:01.054Z,24.80
2019-06-20T12:59:30.472Z,25.50
2019-06-20T13:02:01.514Z,25.90
2019-06-20T13:04:31.541Z,26.00
2019-06-20T13:07:01.023Z,25.80
2019-06-20T13:09:32.094Z,26.10
2019-06-20T13:12:03.334Z,25.60
2019-06-20T13:14:32.829Z,25.20
2019-06-20T13:17:06.870Z,25.30
2019-06-20T13:19:38.603Z,23.90
2019-06-20T13:22:10.189Z,23.80
2019-06-20T13:24:41.051Z,24.50
2019-06-20T13:27:14.178Z,25.40
2019-06-20T13:29:45.278Z,25.90
2019-06-20T13:32:16.029Z,26.00
2019-06-20T13:34:46.931Z,26.20
2019-06-20T13:37:18.649Z,25.70
2019-06-20T13:39:50.161Z,25.90
2019-06-20T13:42:19.642Z,26.40
2019-06-20T13:44:50.702Z,26.10
2019-06-20T13:47:21.224Z,26.40
2019-06-20T13:49:50.983Z,26.90
2019-06-20T13:52:23.086Z,26.60
2019-06-20T13:54:53.787Z,26.50
2019-06-20T13:57:25.241Z,27.20
2019-06-20T13:59:56.826Z,27.10
2019-06-20T14:02:26.226Z,26.30
2019-06-20T14:05:10.006Z,26.00
2019-06-20T14:07:43.481Z,25.20
2019-06-20T14:10:10.706Z,24.30
2019-06-20T14:12:41.858Z,24.50
2019-06-20T14:15:13.555Z,24.10
2019-06-20T14:17:44.922Z,23.70
2019-06-20T14:20:17.164Z,23.30
2019-06-20T14:22:50.394Z,23.10
2019-06-20T14:25:34.409Z,23.20
2019-06-20T14:28:11.610Z,23.90
2019-06-20T14:30:44.637Z,25.00
2019-06-20T14:33:34.454Z,25.40
2019-06-20T14:36:06.974Z,25.10
2019-06-20T14:38:36.571Z,24.40
2019-06-20T14:41:05.989Z,23.70
2019-06-20T14:43:35.474Z,22.90
2019-06-20T14:46:07.487Z,22.80
2019-06-20T14:48:36.949Z,23.10
2019-06-20T14:51:06.461Z,22.80
2019-06-20T14:53:38.217Z,23.10
2019-06-20T14:56:07.818Z,24.10
2019-06-20T14:58:40.089Z,24.40
2019-06-20T15:01:09.560Z,24.00
2019-06-20T15:03:40.636Z,23.60
2019-06-20T15:06:12.040Z,23.10
2019-06-20T15:08:43.991Z,22.90
2019-06-20T15:11:14.487Z,22.60
2019-06-20T15:13:44.450Z,22.60
2019-06-20T15:16:15.173Z,23.50
2019-06-20T15:18:47.951Z,23.80
2019-06-20T15:21:17.763Z,23.60
2019-06-20T15:23:49.569Z,23.20
2019-06-20T15:26:20.664Z,22.80
2019-06-20T15:28:51.806Z,22.20
2019-06-20T15:31:24.220Z,22.00
2019-06-20T15:33:55.042Z,21.80
2019-06-20T15:36:26.262Z,21.90
2019-06-20T15:38:57.343Z,21.90
2019-06-20T15:41:29.284Z,22.00
2019-06-20T15:43:58.781Z,22.20
2019-06-20T15:46:30.584Z,22.40
2019-06-20T15:49:15.448Z,22.20
2019-06-20T15:51:33.164Z,22.30
2019-06-20T15:54:03.617Z,22.00
2019-06-20T15:56:34.046Z,22.50
2019-06-20T15:59:03.551Z,23.10
2019-06-20T16:01:32.988Z,23.20
2019-06-20T16:04:02.502Z,23.20
2019-06-20T16:06:32.887Z,23.30
2019-06-20T16:09:04.630Z,23.50
2019-06-20T16:11:36.268Z,23.50
2019-06-20T16:14:05.800Z,23.40
2019-06-20T16:16:35.262Z,23.30
2019-06-20T16:19:11.927Z,22.90
2019-06-20T16:21:41.401Z,23.10
2019-06-20T16:24:12.719Z,23.00
2019-06-20T16:26:42.561Z,22.70
2019-06-20T16:29:12.105Z,22.50
2019-06-20T16:31:42.500Z,22.70
2019-06-20T16:34:11.916Z,22.60
2019-06-20T16:36:41.420Z,22.90
2019-06-20T16:39:10.960Z,23.50
2019-06-20T16:41:43.938Z,24.00
2019-06-20T16:44:13.391Z,24.40
2019-06-20T16:46:42.900Z,24.30
2019-06-20T16:49:12.347Z,23.90
2019-06-20T16:51:42.147Z,23.40
2019-06-20T16:54:12.566Z,23.80
2019-06-20T16:56:42.998Z,24.60
2019-06-20T16:59:14.332Z,24.90
2019-06-20T17:01:46.591Z,24.70
2019-06-20T17:04:21.433Z,24.20
2019-06-20T17:06:54.802Z,23.30
2019-06-20T17:09:25.797Z,23.40
2019-06-20T17:11:56.152Z,23.50
2019-06-20T17:14:26.810Z,23.40
2019-06-20T17:16:57.174Z,23.00
2019-06-20T17:19:27.654Z,22.70
2019-06-20T17:21:57.561Z,22.30
2019-06-20T17:24:28.166Z,22.30
2019-06-20T17:26:58.554Z,22.20
2019-06-20T17:29:28.927Z,22.20
2019-06-20T17:31:59.328Z,21.90
2019-06-20T17:34:28.788Z,21.90
2019-06-20T17:36:59.219Z,21.70
2019-06-20T17:39:28.593Z,21.60
2019-06-20T17:41:58.089Z,21.50
2019-06-20T17:44:29.431Z,21.50
2019-06-20T17:46:58.877Z,21.50
2019-06-20T17:49:29.276Z,21.30
2019-06-20T17:51:58.750Z,21.30
2019-06-20T17:54:29.485Z,21.20
2019-06-20T17:57:03.238Z,21.00
2019-06-20T17:59:32.439Z,21.20
2019-06-20T18:02:03.040Z,21.30
2019-06-20T18:04:35.181Z,21.50
2019-06-20T18:07:08.559Z,21.20
2019-06-20T18:09:39.642Z,21.00
2019-06-20T18:12:11.112Z,20.90
2019-06-20T18:14:41.849Z,20.80
2019-06-20T18:17:11.311Z,20.80
2019-06-20T18:19:42.941Z,20.80
2019-06-20T18:22:12.566Z,20.90
2019-06-20T18:24:43.415Z,21.00
2019-06-20T18:27:18.818Z,20.60
2019-06-20T18:29:54.032Z,20.60
2019-06-20T18:32:26.024Z,20.60
2019-06-20T18:35:13.747Z,20.60
2019-06-20T18:37:44.531Z,20.70
2019-06-20T18:40:16.752Z,20.60
2019-06-20T18:42:48.780Z,20.70
2019-06-20T18:45:21.227Z,20.60
2019-06-20T18:47:51.723Z,20.60
2019-06-20T18:50:25.505Z,20.40
2019-06-20T18:52:57.746Z,20.40
2019-06-20T18:55:29.626Z,20.20
2019-06-20T18:58:02.120Z,20.10
2019-06-20T19:00:35.410Z,20.20
2019-06-20T19:03:12.439Z,20.20
2019-06-20T19:05:43.356Z,20.00
2019-06-20T19:08:18.772Z,19.80
2019-06-20T19:10:49.168Z,20.00
2019-06-20T19:13:24.666Z,20.10
2019-06-20T19:15:59.785Z,20.00
2019-06-20T19:18:29.362Z,19.70
2019-06-20T19:20:59.037Z,19.70
2019-06-20T19:23:29.749Z,19.70
2019-06-20T19:26:00.944Z,19.80
2019-06-20T19:28:32.703Z,19.80
2019-06-20T19:31:02.422Z,19.90
2019-06-20T19:33:34.442Z,19.80
2019-06-20T19:36:06.068Z,19.80
2019-06-20T19:38:35.522Z,19.80
2019-06-20T19:41:05.185Z,19.90
2019-06-20T19:43:35.625Z,20.00
2019-06-20T19:46:09.469Z,19.90
2019-06-20T19:48:40.787Z,19.50
2019-06-20T19:51:15.204Z,19.30
2019-06-20T19:53:45.976Z,19.40
2019-06-20T19:56:15.673Z,19.40
2019-06-20T19:58:46.846Z,19.10
2019-06-20T20:01:18.638Z,19.20
2019-06-20T20:03:51.158Z,19.20
2019-06-20T20:06:24.719Z,19.20
2019-06-20T20:08:57.358Z,19.10
2019-06-20T20:11:30.750Z,19.00
2019-06-20T20:14:06.563Z,19.00
2019-06-20T20:16:39.608Z,19.00
2019-06-20T20:19:16.135Z,18.80
2019-06-20T20:21:45.602Z,18.90
2019-06-20T20:24:15.136Z,19.00
2019-06-20T20:26:47.579Z,18.90
2019-06-20T20:29:18.039Z,18.90
2019-06-20T20:31:48.994Z,18.80
2019-06-20T20:34:18.458Z,18.90
2019-06-20T20:36:49.521Z,18.90
2019-06-20T20:39:19.040Z,18.80
2019-06-20T20:41:50.083Z,18.60
2019-06-20T20:44:19.702Z,18.60
2019-06-20T20:46:49.160Z,18.50
2019-06-20T20:49:18.605Z,18.50
2019-06-20T20:51:55.007Z,18.40
2019-06-20T20:54:25.355Z,18.50
2019-06-20T20:56:55.817Z,18.40
2019-06-20T20:59:25.326Z,18.50
2019-06-20T21:01:54.775Z,18.60
2019-06-20T21:04:24.229Z,18.60
2019-06-20T21:06:53.742Z,18.50
2019-06-20T21:09:23.183Z,18.40
2019-06-20T21:11:53.598Z,18.30
2019-06-20T21:14:23.013Z,18.30
2019-06-20T21:16:53.925Z,18.40
2019-06-20T21:19:23.449Z,18.40
2019-06-20T21:21:52.941Z,18.50
2019-06-20T21:24:22.373Z,18.40
2019-06-20T21:26:52.729Z,18.40
2019-06-20T21:29:22.093Z,18.20
2019-06-20T21:31:51.521Z,18.10
2019-06-20T21:34:20.948Z,18.00
2019-06-20T21:36:50.388Z,18.10
2019-06-20T21:39:21.370Z,17.90
2019-06-20T21:41:50.842Z,17.60
2019-06-20T21:44:20.273Z,17.70
2019-06-20T21:46:49.756Z,17.90
2019-06-20T21:49:19.128Z,17.90
2019-06-20T21:51:48.559Z,17.90
2019-06-20T21:54:18.909Z,17.90
2019-06-20T21:56:49.261Z,17.80
2019-06-20T21:59:18.739Z,17.80
2019-06-20T22:01:49.063Z,17.60
2019-06-20T22:04:19.490Z,17.30
2019-06-20T22:06:48.910Z,17.30
2019-06-20T22:09:18.354Z,17.20
2019-06-20T22:11:48.024Z,17.20
2019-06-20T22:14:19.687Z,17.20
2019-06-20T22:16:49.126Z,16.90
2019-06-20T22:19:19.462Z,16.90
2019-06-20T22:21:49.822Z,17.00
2019-06-20T22:24:19.327Z,16.80
2019-06-20T22:26:49.209Z,16.80
2019-06-20T22:29:18.656Z,16.80
2019-06-20T22:31:49.952Z,16.70
2019-06-20T22:34:19.468Z,16.70
2019-06-20T22:36:49.877Z,16.70
2019-06-20T22:39:19.326Z,16.70
2019-06-20T22:41:50.272Z,16.80
2019-06-20T22:44:19.657Z,16.70
2019-06-20T22:46:49.041Z,16.80
2019-06-20T22:49:18.466Z,16.90
2019-06-20T22:51:47.901Z,16.80
2019-06-20T22:54:18.639Z,16.60
2019-06-20T22:56:48.122Z,16.60
2019-06-20T22:59:17.703Z,16.60
2019-06-20T23:01:47.229Z,16.60
2019-06-20T23:04:16.685Z,16.60
2019-06-20T23:06:55.883Z,16.50
2019-06-20T23:09:17.260Z,16.40
2019-06-20T23:11:46.717Z,16.50
2019-06-20T23:14:16.194Z,16.40
2019-06-20T23:16:48.690Z,16.20
2019-06-20T23:19:21.300Z,16.20
2019-06-20T23:21:50.732Z,16.10
2019-06-20T23:24:20.684Z,16.10
2019-06-20T23:26:50.141Z,16.10
2019-06-20T23:29:22.512Z,16.10
2019-06-20T23:31:54.089Z,16.00
2019-06-20T23:34:23.673Z,16.00
2019-06-20T23:36:53.282Z,16.00
2019-06-20T23:39:23.650Z,16.00
2019-06-20T23:41:54.992Z,15.80
2019-06-20T23:44:25.393Z,15.80
2019-06-20T23:46:54.870Z,15.80
2019-06-20T23:49:24.327Z,15.70
2019-06-20T23:51:56.342Z,15.70
2019-06-20T23:54:25.805Z,15.60
2019-06-20T23:56:55.212Z,15.60
2019-06-20T23:59:24.664Z,15.60
